Time;durP1;ratioP1;P1;durP2;ratioP2;P2;SDS_P1;SDS_P2;PMS_P1;PMS_P2;Temp;Humidity;BMP_temperature;BMP_pressure;BME280_temperature;BME280_humidity;BME280_pressure;Samples;Min_cycle;Max_cycle;Signal;HPM_P1;HPM_P2
2022/04/05 00:01:52;;;;;;;28.17;16.75;;;;;;;;;;6371362;27;20019;-80
2022/04/05 00:04:52;;;;;;;25.70;13.47;;;;;;;;;;6352840;27;20027;-80
2022/04/05 00:07:54;;;;;;;29.25;16.85;;;;;;;;;;6352345;27;20297;-81
2022/04/05 00:10:54;;;;;;;28.42;17.40;;;;;;;;;;6352513;27;20019;-81
2022/04/05 00:13:54;;;;;;;23.27;12.68;;;;;;;;;;6352090;27;20054;-81
2022/04/05 00:16:55;;;;;;;26.92;16.30;;;;;;;;;;6351923;27;20026;-81
2022/04/05 00:19:55;;;;;;;28.42;15.93;;;;;;;;;;6370706;27;20057;-82
2022/04/05 00:22:55;;;;;;;27.40;16.55;;;;;;;;;;6347312;27;20182;-81
2022/04/05 00:25:55;;;;;;;29.47;15.73;;;;;;;;;;6347321;27;20071;-82
2022/04/05 00:28:56;;;;;;;28.83;17.30;;;;;;;;;;6370329;27;20261;-81
2022/04/05 00:31:56;;;;;;;25.67;14.38;;;;;;;;;;6370350;27;20494;-81
2022/04/05 00:34:56;;;;;;;25.98;16.83;;;;;;;;;;6352103;27;20495;-81
2022/04/05 00:37:57;;;;;;;19.73;11.77;;;;;;;;;;6370194;27;20038;-81
2022/04/05 00:40:57;;;;;;;24.60;13.93;;;;;;;;;;6351783;27;20015;-80
2022/04/05 00:43:57;;;;;;;30.17;16.92;;;;;;;;;;6370006;27;20080;-80
2022/04/05 00:47:00;;;;;;;25.25;16.92;;;;;;;;;;6335894;28;20035;-81
2022/04/05 00:50:01;;;;;;;23.63;12.85;;;;;;;;;;6344522;28;20413;-81
2022/04/05 00:53:03;;;;;;;30.40;19.27;;;;;;;;;;6344801;28;20023;-81
2022/04/05 00:56:05;;;;;;;25.95;16.33;;;;;;;;;;6362022;27;20026;-80
2022/04/05 00:59:07;;;;;;;24.93;15.23;;;;;;;;;;6350955;27;20019;-80
2022/04/05 01:02:17;;;;;;;28.05;16.60;;;;;;;;;;6351073;27;20264;-80
2022/04/05 01:05:18;;;;;;;30.15;20.25;;;;;;;;;;6325845;28;20027;-80
2022/04/05 01:08:19;;;;;;;27.60;13.30;;;;;;;;;;6344343;28;20482;-80
2022/04/05 01:11:21;;;;;;;28.95;17.85;;;;;;;;;;6343081;28;20394;-80
2022/04/05 01:14:21;;;;;;;24.63;16.27;;;;;;;;;;6346389;28;20023;-81
2022/04/05 01:17:21;;;;;;;24.38;14.15;;;;;;;;;;6365575;27;20023;-81
2022/04/05 01:20:23;;;;;;;29.45;15.35;;;;;;;;;;6369603;27;20019;-81
2022/04/05 01:23:23;;;;;;;30.30;16.60;;;;;;;;;;6369935;27;20027;-80
2022/04/05 01:26:23;;;;;;;28.90;18.30;;;;;;;;;;6369078;27;20104;-81
2022/04/05 01:29:26;;;;;;;22.08;13.77;;;;;;;;;;6369015;27;20027;-80
2022/04/05 01:32:26;;;;;;;30.50;18.38;;;;;;;;;;6367438;27;20498;-81
2022/04/05 01:35:26;;;;;;;27.00;15.00;;;;;;;;;;6349897;27;20039;-80
2022/04/05 01:38:27;;;;;;;23.27;12.35;;;;;;;;;;6350195;27;20051;-79
2022/04/05 01:41:27;;;;;;;27.00;15.98;;;;;;;;;;6347723;27;20023;-80
2022/04/05 01:44:28;;;;;;;26.08;15.55;;;;;;;;;;6345274;27;20027;-79
2022/04/05 01:47:29;;;;;;;20.70;12.45;;;;;;;;;;6334134;27;20026;-79
2022/04/05 01:50:31;;;;;;;27.50;16.02;;;;;;;;;;6355106;27;20051;-80
2022/04/05 01:53:31;;;;;;;26.77;17.45;;;;;;;;;;6342910;28;20031;-79
2022/04/05 01:56:32;;;;;;;22.27;14.45;;;;;;;;;;6339439;28;20030;-79
2022/04/05 01:59:36;;;;;;;25.35;17.27;;;;;;;;;;6340343;28;20205;-80
2022/04/05 02:02:36;;;;;;;27.25;18.17;;;;;;;;;;6347962;28;20051;-80
2022/04/05 02:05:38;;;;;;;25.73;15.57;;;;;;;;;;6338677;28;20030;-81
2022/04/05 02:08:39;;;;;;;26.75;15.48;;;;;;;;;;6336766;28;20072;-79
2022/04/05 02:11:39;;;;;;;31.00;19.10;;;;;;;;;;6338654;28;20012;-80
2022/04/05 02:14:40;;;;;;;30.75;19.17;;;;;;;;;;6348529;28;20434;-80
2022/04/05 02:17:40;;;;;;;21.98;14.50;;;;;;;;;;6343924;28;20012;-79
2022/04/05 02:20:41;;;;;;;27.83;16.08;;;;;;;;;;6341858;28;20015;-79
2022/04/05 02:23:41;;;;;;;30.45;17.55;;;;;;;;;;6345196;27;20670;-79
2022/04/05 02:26:41;;;;;;;25.85;15.73;;;;;;;;;;6343211;28;20054;-79
2022/04/05 02:29:42;;;;;;;21.83;13.48;;;;;;;;;;6358546;27;20045;-80
2022/04/05 02:32:42;;;;;;;23.52;15.50;;;;;;;;;;6338342;28;20160;-80
2022/04/05 02:35:43;;;;;;;33.45;19.73;;;;;;;;;;6342746;28;20019;-80
2022/04/05 02:38:43;;;;;;;26.30;16.40;;;;;;;;;;6350837;27;20023;-80
2022/04/05 02:41:43;;;;;;;18.50;13.05;;;;;;;;;;6349391;27;20019;-80
2022/04/05 02:44:43;;;;;;;27.42;16.25;;;;;;;;;;6362347;27;20110;-80
2022/04/05 02:47:44;;;;;;;29.45;19.27;;;;;;;;;;6359633;27;20288;-80
2022/04/05 02:50:44;;;;;;;22.08;15.25;;;;;;;;;;6341495;27;20055;-80
2022/04/05 02:53:44;;;;;;;27.92;18.88;;;;;;;;;;6349372;27;20034;-80
2022/04/05 02:56:44;;;;;;;26.52;16.42;;;;;;;;;;6364801;27;20015;-80
2022/04/05 02:59:45;;;;;;;29.45;16.30;;;;;;;;;;6364201;27;20093;-80
2022/04/05 03:02:45;;;;;;;25.05;13.93;;;;;;;;;;6347233;27;20021;-81
2022/04/05 03:05:45;;;;;;;25.50;16.20;;;;;;;;;;6362906;27;20075;-80
2022/04/05 03:08:46;;;;;;;27.70;16.83;;;;;;;;;;6356179;27;20091;-80
2022/04/05 03:11:46;;;;;;;24.58;15.18;;;;;;;;;;6364758;27;20015;-80
2022/04/05 03:14:46;;;;;;;22.95;15.05;;;;;;;;;;6367368;27;20102;-82
2022/04/05 03:17:47;;;;;;;27.23;14.30;;;;;;;;;;6364048;27;20060;-80
2022/04/05 03:20:47;;;;;;;25.67;14.65;;;;;;;;;;6371460;27;20326;-80
2022/04/05 03:23:48;;;;;;;23.08;15.18;;;;;;;;;;6343149;27;20477;-80
2022/04/05 03:26:48;;;;;;;21.17;12.80;;;;;;;;;;6347430;27;20520;-80
2022/04/05 03:29:48;;;;;;;28.23;17.77;;;;;;;;;;6365591;27;20083;-80
2022/04/05 03:32:49;;;;;;;25.90;13.27;;;;;;;;;;6366178;27;20050;-80
2022/04/05 03:35:49;;;;;;;26.92;16.25;;;;;;;;;;6349851;27;20386;-80
2022/04/05 03:38:49;;;;;;;23.63;16.27;;;;;;;;;;6339667;27;20383;-80
2022/04/05 03:41:50;;;;;;;26.47;16.20;;;;;;;;;;6342212;28;20034;-80
2022/04/05 03:44:50;;;;;;;25.90;14.52;;;;;;;;;;6343460;27;20285;-80
2022/04/05 03:47:50;;;;;;;24.03;13.00;;;;;;;;;;6346040;27;20023;-80
2022/04/05 03:50:51;;;;;;;25.67;14.25;;;;;;;;;;6342355;27;20262;-81
2022/04/05 03:53:51;;;;;;;23.02;14.23;;;;;;;;;;6344574;27;20030;-81
2022/04/05 03:56:51;;;;;;;28.30;16.02;;;;;;;;;;6342026;27;20713;-81
2022/04/05 03:59:52;;;;;;;29.17;17.13;;;;;;;;;;6347356;27;20085;-80
2022/04/05 04:02:52;;;;;;;23.83;14.60;;;;;;;;;;6331522;27;20030;-80
2022/04/05 04:05:52;;;;;;;27.85;17.38;;;;;;;;;;6352822;27;20429;-80
2022/04/05 04:08:52;;;;;;;28.10;17.10;;;;;;;;;;6363522;27;20023;-80
2022/04/05 04:11:53;;;;;;;32.15;18.15;;;;;;;;;;6360751;27;20026;-80
2022/04/05 04:14:53;;;;;;;22.73;13.98;;;;;;;;;;6343422;27;20109;-80
2022/04/05 04:17:53;;;;;;;29.73;16.63;;;;;;;;;;6345377;27;20011;-81
2022/04/05 04:20:53;;;;;;;29.70;15.50;;;;;;;;;;6351339;27;20014;-81
2022/04/05 04:23:53;;;;;;;28.77;17.67;;;;;;;;;;6354302;27;20030;-80
2022/04/05 04:26:54;;;;;;;22.50;15.90;;;;;;;;;;6354063;27;20257;-79
2022/04/05 04:29:54;;;;;;;20.65;13.00;;;;;;;;;;6331201;27;20027;-81
2022/04/05 04:32:55;;;;;;;22.63;13.20;;;;;;;;;;6339453;27;20537;-81
2022/04/05 04:35:55;;;;;;;21.88;13.40;;;;;;;;;;6342499;28;20019;-81
2022/04/05 04:38:55;;;;;;;30.70;15.32;;;;;;;;;;6352460;27;20015;-80
2022/04/05 04:41:57;;;;;;;36.03;21.65;;;;;;;;;;6363845;27;20044;-80
2022/04/05 04:44:57;;;;;;;33.50;17.30;;;;;;;;;;6345933;27;20019;-81
2022/04/05 04:47:57;;;;;;;36.00;20.80;;;;;;;;;;6355261;27;20429;-81
2022/04/05 04:50:58;;;;;;;33.42;18.08;;;;;;;;;;6353626;27;20050;-80
2022/04/05 04:53:58;;;;;;;23.88;15.95;;;;;;;;;;6345104;27;20042;-80
2022/04/05 04:56:58;;;;;;;29.35;16.80;;;;;;;;;;6340611;28;20107;-80
2022/04/05 04:59:59;;;;;;;24.15;15.40;;;;;;;;;;6346399;27;21248;-79
2022/04/05 05:02:59;;;;;;;40.00;23.48;;;;;;;;;;6347774;27;20063;-80
2022/04/05 05:05:59;;;;;;;22.70;14.38;;;;;;;;;;6352937;27;20439;-80
2022/04/05 05:08:59;;;;;;;21.67;14.38;;;;;;;;;;6338013;27;20063;-80
2022/04/05 05:12:00;;;;;;;27.23;17.73;;;;;;;;;;6342176;27;20021;-80
2022/04/05 05:15:02;;;;;;;23.92;14.50;;;;;;;;;;6337480;27;20023;-80
2022/04/05 05:18:02;;;;;;;22.65;11.27;;;;;;;;;;6353532;27;20011;-81
2022/04/05 05:21:02;;;;;;;31.92;16.92;;;;;;;;;;6358332;27;20375;-81
2022/04/05 05:24:03;;;;;;;29.40;16.08;;;;;;;;;;6348466;27;20120;-81
2022/04/05 05:27:03;;;;;;;29.20;17.70;;;;;;;;;;6354108;27;20126;-81
2022/04/05 05:30:08;;;;;;;23.05;13.65;;;;;;;;;;6328214;28;20110;-80
2022/04/05 05:33:08;;;;;;;18.30;11.05;;;;;;;;;;6332503;27;20043;-80
2022/04/05 05:36:08;;;;;;;30.45;17.35;;;;;;;;;;6351432;27;20041;-81
2022/04/05 05:39:08;;;;;;;23.45;14.35;;;;;;;;;;6364134;27;20030;-81
2022/04/05 05:42:09;;;;;;;22.92;14.18;;;;;;;;;;6373400;27;20232;-80
2022/04/05 05:45:09;;;;;;;24.15;14.48;;;;;;;;;;6369744;27;20033;-80
2022/04/05 05:48:09;;;;;;;21.30;14.52;;;;;;;;;;6369384;27;20034;-80
2022/04/05 05:51:10;;;;;;;21.67;14.43;;;;;;;;;;6351012;27;20058;-80
2022/04/05 05:54:10;;;;;;;27.60;14.27;;;;;;;;;;6369299;27;20520;-80
2022/04/05 05:57:10;;;;;;;27.40;16.67;;;;;;;;;;6358372;28;20383;-80
2022/04/05 06:00:16;;;;;;;25.40;14.52;;;;;;;;;;6341250;28;20011;-81
2022/04/05 06:03:17;;;;;;;22.65;11.80;;;;;;;;;;6360738;28;20098;-81
2022/04/05 06:06:17;;;;;;;24.80;16.08;;;;;;;;;;6365796;28;20019;-80
2022/04/05 06:09:17;;;;;;;26.85;16.13;;;;;;;;;;6350008;28;20015;-80
2022/04/05 06:12:17;;;;;;;21.23;13.18;;;;;;;;;;6350653;28;20060;-80
2022/04/05 06:15:18;;;;;;;29.52;11.20;;;;;;;;;;6345436;28;20015;-80
2022/04/05 06:18:18;;;;;;;20.85;12.93;;;;;;;;;;6328502;28;20019;-80
2022/04/05 06:21:19;;;;;;;23.40;13.60;;;;;;;;;;6357206;28;20482;-81
2022/04/05 06:24:20;;;;;;;28.63;16.35;;;;;;;;;;6360640;28;20104;-81
2022/04/05 06:27:20;;;;;;;21.35;12.48;;;;;;;;;;6365083;28;20011;-81
2022/04/05 06:30:20;;;;;;;29.27;16.40;;;;;;;;;;6350108;28;20026;-80
2022/04/05 06:33:24;;;;;;;21.20;12.57;;;;;;;;;;6363540;28;20046;-81
2022/04/05 06:36:24;;;;;;;25.05;14.70;;;;;;;;;;6347291;28;20024;-81
2022/04/05 06:39:25;;;;;;;25.52;14.27;;;;;;;;;;6348282;28;20049;-80
2022/04/05 06:42:25;;;;;;;24.53;14.27;;;;;;;;;;6344721;28;20505;-81
2022/04/05 06:45:26;;;;;;;26.42;14.93;;;;;;;;;;6328303;28;20023;-81
2022/04/05 06:48:26;;;;;;;22.45;13.10;;;;;;;;;;6329089;28;20065;-81
2022/04/05 06:51:28;;;;;;;18.77;12.18;;;;;;;;;;6354378;28;20099;-81
2022/04/05 06:54:28;;;;;;;19.08;11.88;;;;;;;;;;6333412;28;20044;-81
2022/04/05 06:57:29;;;;;;;23.05;13.18;;;;;;;;;;6343856;28;20042;-80
2022/04/05 07:00:29;;;;;;;17.00;11.57;;;;;;;;;;6342858;28;20073;-81
2022/04/05 07:03:29;;;;;;;19.50;12.27;;;;;;;;;;6349949;28;20039;-80
2022/04/05 07:06:29;;;;;;;17.55;9.43;;;;;;;;;;6350133;28;20016;-82
2022/04/05 07:09:30;;;;;;;18.97;12.13;;;;;;;;;;6352213;27;20031;-80
2022/04/05 07:12:33;;;;;;;18.73;12.27;;;;;;;;;;6373184;27;20253;-81
2022/04/05 07:15:33;;;;;;;19.90;10.88;;;;;;;;;;6367085;27;20273;-80
2022/04/05 07:18:33;;;;;;;17.87;11.20;;;;;;;;;;6346113;27;20027;-80
2022/04/05 07:21:34;;;;;;;20.30;13.25;;;;;;;;;;6352573;27;20704;-81
2022/04/05 07:24:34;;;;;;;21.00;12.75;;;;;;;;;;6341909;27;20115;-81
2022/04/05 07:27:34;;;;;;;22.27;11.57;;;;;;;;;;6339187;27;20054;-80
2022/04/05 07:30:34;;;;;;;18.38;10.35;;;;;;;;;;6351532;27;20039;-81
2022/04/05 07:33:35;;;;;;;17.85;11.88;;;;;;;;;;6342496;27;20027;-81
2022/04/05 07:36:35;;;;;;;19.23;11.35;;;;;;;;;;6358573;27;20020;-81
2022/04/05 07:39:36;;;;;;;18.85;11.57;;;;;;;;;;6363750;27;20020;-81
2022/04/05 07:42:37;;;;;;;16.85;11.05;;;;;;;;;;6359980;27;20015;-81
2022/04/05 07:45:37;;;;;;;20.83;11.02;;;;;;;;;;6360856;27;20148;-81
2022/04/05 07:48:37;;;;;;;20.40;11.75;;;;;;;;;;6341771;27;20259;-81
2022/04/05 07:51:37;;;;;;;17.85;11.85;;;;;;;;;;6346627;27;20482;-80
2022/04/05 07:54:38;;;;;;;24.90;11.63;;;;;;;;;;6351144;27;20474;-80
2022/04/05 07:57:40;;;;;;;16.02;8.60;;;;;;;;;;6344016;28;20372;-81
2022/04/05 08:00:40;;;;;;;23.10;14.15;;;;;;;;;;6344784;28;20045;-81
2022/04/05 08:03:41;;;;;;;17.58;11.07;;;;;;;;;;6356057;27;20071;-81
2022/04/05 08:06:41;;;;;;;20.02;12.55;;;;;;;;;;6351838;27;20019;-81
2022/04/05 08:09:41;;;;;;;17.88;13.52;;;;;;;;;;6369697;27;20539;-81
2022/04/05 08:12:43;;;;;;;18.60;13.07;;;;;;;;;;6357679;27;20457;-81
2022/04/05 08:15:43;;;;;;;17.67;12.43;;;;;;;;;;6334203;27;20714;-81
2022/04/05 08:18:44;;;;;;;19.13;13.90;;;;;;;;;;6337724;27;20585;-81
2022/04/05 08:21:44;;;;;;;17.27;12.13;;;;;;;;;;6361906;27;20054;-81
2022/04/05 08:24:44;;;;;;;14.03;9.80;;;;;;;;;;6357697;27;20025;-82
2022/04/05 08:27:46;;;;;;;21.33;14.27;;;;;;;;;;6344133;27;20272;-81
2022/04/05 08:30:46;;;;;;;19.08;10.88;;;;;;;;;;6356614;27;20026;-81
2022/04/05 08:33:46;;;;;;;21.23;15.13;;;;;;;;;;6359977;27;20023;-80
2022/04/05 08:36:47;;;;;;;23.35;14.13;;;;;;;;;;6362175;27;20019;-80
2022/04/05 08:39:48;;;;;;;14.07;10.43;;;;;;;;;;6358271;27;20019;-81
2022/04/05 08:42:50;;;;;;;19.55;12.10;;;;;;;;;;6348344;27;20047;-80
2022/04/05 08:45:56;;;;;;;13.48;9.70;;;;;;;;;;6326551;28;20042;-81
2022/04/05 08:48:57;;;;;;;19.10;10.50;;;;;;;;;;6333404;27;20023;-81
2022/04/05 08:51:58;;;;;;;20.08;11.52;;;;;;;;;;6365873;27;20030;-81
2022/04/05 08:54:58;;;;;;;18.63;12.95;;;;;;;;;;6353041;27;20027;-81
2022/04/05 08:57:58;;;;;;;17.00;10.13;;;;;;;;;;6357222;27;20038;-81
2022/04/05 09:00:58;;;;;;;16.65;11.45;;;;;;;;;;6360057;27;20023;-80
2022/04/05 09:03:58;;;;;;;20.70;11.07;;;;;;;;;;6360374;27;20019;-81
2022/04/05 09:07:26;;;;;;;19.15;13.77;;;;;;;;;;6359187;27;20015;-81
2022/04/05 09:10:26;;;;;;;20.92;12.60;;;;;;;;;;6331317;27;20119;-81
2022/04/05 09:13:27;;;;;;;15.40;10.20;;;;;;;;;;6359296;27;20034;-81
2022/04/05 09:16:33;;;;;;;17.90;11.68;;;;;;;;;;6358527;27;20019;-81
2022/04/05 09:19:38;;;;;;;20.40;10.20;;;;;;;;;;6356476;27;20045;-82
2022/04/05 09:22:38;;;;;;;16.00;10.60;;;;;;;;;;6356674;27;20035;-81
2022/04/05 09:25:52;;;;;;;17.10;11.95;;;;;;;;;;6345761;27;20418;-81
2022/04/05 09:28:52;;;;;;;16.70;10.32;;;;;;;;;;6362220;27;20382;-81
2022/04/05 09:31:52;;;;;;;14.98;9.55;;;;;;;;;;6364490;27;20058;-81
2022/04/05 09:34:54;;;;;;;14.85;9.73;;;;;;;;;;6351197;27;20424;-80
2022/04/05 09:38:17;;;;;;;15.03;9.07;;;;;;;;;;6351003;27;20015;-80
2022/04/05 09:41:21;;;;;;;15.63;10.27;;;;;;;;;;6368781;27;20029;-80
2022/04/05 09:44:26;;;;;;;11.63;7.40;;;;;;;;;;6350811;27;20030;-80
2022/04/05 09:47:26;;;;;;;16.33;9.57;;;;;;;;;;6354117;27;20031;-80
2022/04/05 09:50:26;;;;;;;17.67;10.25;;;;;;;;;;6347901;28;20512;-80
2022/04/05 09:53:27;;;;;;;15.90;7.22;;;;;;;;;;6350852;27;20498;-80
2022/04/05 09:56:35;;;;;;;15.48;8.75;;;;;;;;;;6335569;28;20027;-80
2022/04/05 09:59:37;;;;;;;16.02;10.48;;;;;;;;;;6362051;28;20095;-80
2022/04/05 10:02:57;;;;;;;16.20;9.05;;;;;;;;;;6358615;28;20007;-79
2022/04/05 10:05:57;;;;;;;12.60;8.13;;;;;;;;;;6343352;28;20131;-79
2022/04/05 10:08:58;;;;;;;15.33;9.17;;;;;;;;;;6349356;27;20043;-79
2022/04/05 10:11:59;;;;;;;15.63;9.07;;;;;;;;;;6353135;28;20265;-78
2022/04/05 10:15:00;;;;;;;14.98;9.13;;;;;;;;;;6362880;28;20474;-77
2022/04/05 10:18:01;;;;;;;11.77;7.22;;;;;;;;;;6341012;28;20020;-77
2022/04/05 10:21:03;;;;;;;13.77;9.23;;;;;;;;;;6343919;28;20029;-77
2022/04/05 10:24:04;;;;;;;12.88;7.57;;;;;;;;;;6348733;28;20015;-77
2022/04/05 10:27:06;;;;;;;11.55;7.40;;;;;;;;;;6348822;28;20019;-76
2022/04/05 10:30:18;;;;;;;14.18;6.57;;;;;;;;;;6340734;28;20019;-77
2022/04/05 10:33:33;;;;;;;11.32;7.10;;;;;;;;;;6360023;28;20054;-77
2022/04/05 10:36:33;;;;;;;10.80;8.10;;;;;;;;;;6353443;28;20024;-77
2022/04/05 10:39:34;;;;;;;12.57;7.00;;;;;;;;;;6359232;28;20075;-78
2022/04/05 10:42:37;;;;;;;14.50;7.90;;;;;;;;;;6365131;27;20284;-78
2022/04/05 10:45:42;;;;;;;13.50;8.73;;;;;;;;;;6364683;27;20359;-79
2022/04/05 10:48:55;;;;;;;15.13;8.63;;;;;;;;;;6347804;28;20054;-80
2022/04/05 10:52:04;;;;;;;13.23;7.18;;;;;;;;;;6341181;27;20015;-79
2022/04/05 10:55:08;;;;;;;25.30;13.18;;;;;;;;;;6347536;27;20030;-79
2022/04/05 10:58:10;;;;;;;21.48;10.07;;;;;;;;;;6343197;27;20023;-79
2022/04/05 11:01:20;;;;;;;16.05;9.02;;;;;;;;;;6338700;27;20015;-79
2022/04/05 11:04:24;;;;;;;16.98;9.43;;;;;;;;;;6358180;27;20536;-80
2022/04/05 11:07:24;;;;;;;18.30;10.95;;;;;;;;;;6339676;27;20024;-79
2022/04/05 11:10:30;;;;;;;16.10;10.17;;;;;;;;;;6345979;27;20094;-79
2022/04/05 11:13:32;;;;;;;17.10;11.18;;;;;;;;;;6340571;27;20305;-79
2022/04/05 11:16:32;;;;;;;15.65;8.35;;;;;;;;;;6345293;27;20022;-79
2022/04/05 11:19:33;;;;;;;13.17;8.73;;;;;;;;;;6348203;27;20007;-79
2022/04/05 11:22:35;;;;;;;19.27;11.33;;;;;;;;;;6369221;27;20249;-79
2022/04/05 11:25:35;;;;;;;20.15;9.93;;;;;;;;;;6362530;27;20099;-78
2022/04/05 11:28:45;;;;;;;12.18;7.60;;;;;;;;;;6349501;27;20646;-78
2022/04/05 11:31:46;;;;;;;15.40;6.60;;;;;;;;;;6368766;27;20066;-78
2022/04/05 11:34:48;;;;;;;17.13;9.20;;;;;;;;;;6368291;27;20022;-78
2022/04/05 11:37:48;;;;;;;13.80;8.18;;;;;;;;;;6344429;27;20018;-78
2022/04/05 11:40:53;;;;;;;15.93;8.37;;;;;;;;;;6367209;27;20008;-78
2022/04/05 11:43:55;;;;;;;14.23;6.88;;;;;;;;;;6349277;27;20791;-78
2022/04/05 11:46:57;;;;;;;9.13;4.95;;;;;;;;;;6333205;27;20042;-77
2022/04/05 11:49:57;;;;;;;8.60;5.88;;;;;;;;;;6365217;27;20106;-77
2022/04/05 11:52:57;;;;;;;18.67;9.65;;;;;;;;;;6343100;27;20027;-77
2022/04/05 11:56:02;;;;;;;12.32;6.60;;;;;;;;;;6355116;27;20014;-77
2022/04/05 11:59:04;;;;;;;15.13;9.60;;;;;;;;;;6361919;27;20035;-77
2022/04/05 12:02:05;;;;;;;16.05;8.10;;;;;;;;;;6333680;27;20362;-77
2022/04/05 12:05:05;;;;;;;29.05;13.40;;;;;;;;;;6362052;27;20389;-78
2022/04/05 12:08:08;;;;;;;26.75;12.77;;;;;;;;;;6368210;27;20102;-78
2022/04/05 12:11:09;;;;;;;27.25;11.82;;;;;;;;;;6346893;27;20023;-79
2022/04/05 12:14:10;;;;;;;17.55;9.20;;;;;;;;;;6341405;27;20026;-79
2022/04/05 12:17:11;;;;;;;16.13;7.97;;;;;;;;;;6359301;27;20023;-79
2022/04/05 12:20:11;;;;;;;11.67;5.23;;;;;;;;;;6348719;27;20077;-79
2022/04/05 12:23:21;;;;;;;18.33;8.60;;;;;;;;;;6325877;27;20644;-79
2022/04/05 12:26:23;;;;;;;35.03;13.95;;;;;;;;;;6346439;27;20257;-79
2022/04/05 12:29:24;;;;;;;26.33;13.32;;;;;;;;;;6368180;27;20023;-79
2022/04/05 12:32:24;;;;;;;13.98;6.35;;;;;;;;;;6360544;27;20046;-79
2022/04/05 12:35:25;;;;;;;16.25;7.18;;;;;;;;;;6344940;27;20034;-79
2022/04/05 12:38:25;;;;;;;16.17;8.80;;;;;;;;;;6345194;27;20115;-79
2022/04/05 12:41:25;;;;;;;11.40;6.63;;;;;;;;;;6348689;27;20760;-79
2022/04/05 12:44:32;;;;;;;15.40;6.93;;;;;;;;;;6363617;27;20027;-79
2022/04/05 12:47:34;;;;;;;16.75;9.73;;;;;;;;;;6335294;28;20070;-78
2022/04/05 12:50:41;;;;;;;18.40;7.18;;;;;;;;;;6326568;27;20560;-78
2022/04/05 12:53:42;;;;;;;9.85;6.32;;;;;;;;;;6332517;27;20479;-79
2022/04/05 12:56:42;;;;;;;11.23;5.20;;;;;;;;;;6356159;27;20022;-78
2022/04/05 12:59:43;;;;;;;11.13;6.43;;;;;;;;;;6356133;27;20264;-79
2022/04/05 13:02:53;;;;;;;12.48;7.50;;;;;;;;;;6349388;27;20102;-81
2022/04/05 13:09:15;;;;;;;16.98;9.85;;;;;;;;;;6354548;27;20028;-81
2022/04/05 13:12:16;;;;;;;10.95;6.60;;;;;;;;;;6354489;27;20481;-81
2022/04/05 13:15:20;;;;;;;11.27;8.50;;;;;;;;;;6335142;27;20011;-80
2022/04/05 13:18:20;;;;;;;15.25;8.30;;;;;;;;;;6334114;27;20512;-80
2022/04/05 13:21:25;;;;;;;19.23;10.93;;;;;;;;;;6334418;27;20022;-80
2022/04/05 13:24:27;;;;;;;18.02;12.13;;;;;;;;;;6349928;27;20029;-79
2022/04/05 13:27:28;;;;;;;21.02;10.75;;;;;;;;;;6331813;27;20015;-79
2022/04/05 13:30:29;;;;;;;19.02;11.18;;;;;;;;;;6347932;27;20084;-80
2022/04/05 13:33:29;;;;;;;19.60;11.95;;;;;;;;;;6347383;27;20514;-80
2022/04/05 13:36:30;;;;;;;15.30;10.57;;;;;;;;;;6354365;27;20054;-80
2022/04/05 13:39:33;;;;;;;18.33;11.83;;;;;;;;;;6353262;27;20327;-80
2022/04/05 13:42:34;;;;;;;12.73;8.90;;;;;;;;;;6346504;27;20273;-79
2022/04/05 13:45:34;;;;;;;19.90;12.73;;;;;;;;;;6350280;27;20027;-79
2022/04/05 13:48:35;;;;;;;22.63;14.00;;;;;;;;;;6369224;27;20109;-79
2022/04/05 13:51:36;;;;;;;15.88;9.90;;;;;;;;;;6369099;27;20328;-80
2022/04/05 13:54:36;;;;;;;27.90;15.73;;;;;;;;;;6356062;27;20023;-81
2022/04/05 13:57:36;;;;;;;21.55;12.63;;;;;;;;;;6346932;28;20030;-80
2022/04/05 14:00:36;;;;;;;46.53;28.63;;;;;;;;;;6368023;28;20088;-80
2022/04/05 14:03:37;;;;;;;44.13;24.80;;;;;;;;;;6350355;28;20060;-79
2022/04/05 14:06:37;;;;;;;55.58;33.55;;;;;;;;;;6368520;27;20098;-79
2022/04/05 14:09:37;;;;;;;57.25;32.83;;;;;;;;;;6359600;28;20094;-80
2022/04/05 14:12:38;;;;;;;54.33;32.88;;;;;;;;;;6344403;28;20031;-81
2022/04/05 14:15:38;;;;;;;41.55;22.27;;;;;;;;;;6363641;27;20026;-81
2022/04/05 14:18:38;;;;;;;46.00;25.17;;;;;;;;;;6352092;27;20030;-81
2022/04/05 14:21:39;;;;;;;61.75;34.60;;;;;;;;;;6339190;27;20285;-81
2022/04/05 14:24:39;;;;;;;54.97;34.00;;;;;;;;;;6350144;27;20985;-81
2022/04/05 14:27:39;;;;;;;57.22;37.90;;;;;;;;;;6336921;27;20164;-81
2022/04/05 14:30:40;;;;;;;49.08;29.23;;;;;;;;;;6360104;27;20488;-81
2022/04/05 14:33:41;;;;;;;60.08;32.85;;;;;;;;;;6359905;27;20024;-81
2022/04/05 14:36:42;;;;;;;56.25;28.85;;;;;;;;;;6341078;27;20525;-81
2022/04/05 14:39:43;;;;;;;61.25;31.13;;;;;;;;;;6337258;27;20015;-80
2022/04/05 14:42:43;;;;;;;44.40;24.23;;;;;;;;;;6361359;27;20015;-80
2022/04/05 14:45:43;;;;;;;52.25;26.52;;;;;;;;;;6339255;27;20302;-80
2022/04/05 14:48:43;;;;;;;48.15;25.48;;;;;;;;;;6338630;27;20291;-80
2022/04/05 14:51:44;;;;;;;39.95;25.10;;;;;;;;;;6355922;27;20490;-79
2022/04/05 14:54:44;;;;;;;34.50;20.20;;;;;;;;;;6344061;27;20015;-80
2022/04/05 14:57:45;;;;;;;45.83;28.50;;;;;;;;;;6342428;27;20011;-80
2022/04/05 15:00:46;;;;;;;54.97;33.03;;;;;;;;;;6338242;27;20023;-82
2022/04/05 15:03:47;;;;;;;51.75;31.52;;;;;;;;;;6333034;27;20061;-81
2022/04/05 15:06:48;;;;;;;41.42;20.00;;;;;;;;;;6350795;27;20023;-80
2022/04/05 15:09:50;;;;;;;52.80;28.35;;;;;;;;;;6340050;27;20024;-80
2022/04/05 15:12:50;;;;;;;;;;;;;;;;;;6336772;27;20498;-79
2022/04/05 15:15:50;;;;;;;36.55;15.70;;;;;;;;;;6351606;27;20396;-79
2022/04/05 15:18:53;;;;;;;43.10;19.27;;;;;;;;;;6357915;27;20011;-78
2022/04/05 15:21:53;;;;;;;35.45;17.33;;;;;;;;;;6327699;28;20019;-80
2022/04/05 15:24:53;;;;;;;45.80;22.60;;;;;;;;;;6330713;27;20479;-79
2022/04/05 15:27:54;;;;;;;26.20;16.03;;;;;;;;;;6342704;27;20023;-80
2022/04/05 15:30:54;;;;;;;26.63;17.00;;;;;;;;;;6342622;27;20289;-79
2022/04/05 15:33:55;;;;;;;51.88;28.92;;;;;;;;;;6349603;27;20293;-80
2022/04/05 15:36:55;;;;;;;32.45;19.13;;;;;;;;;;6348104;27;20098;-79
2022/04/05 15:39:55;;;;;;;30.33;17.30;;;;;;;;;;6349270;27;20012;-80
2022/04/05 15:42:55;;;;;;;68.30;27.53;;;;;;;;;;6345947;28;20591;-79
2022/04/05 15:45:56;;;;;;;41.10;19.38;;;;;;;;;;6341494;27;20308;-80
2022/04/05 15:48:56;;;;;;;59.45;30.13;;;;;;;;;;6341924;27;20038;-79
2022/04/05 15:51:58;;;;;;;24.00;14.02;;;;;;;;;;6340935;27;20024;-79
2022/04/05 15:54:59;;;;;;;20.33;11.45;;;;;;;;;;6332269;27;20015;-79
2022/04/05 15:57:59;;;;;;;26.05;16.52;;;;;;;;;;6346803;28;20121;-80
2022/04/05 16:00:59;;;;;;;33.38;15.60;;;;;;;;;;6353121;27;20087;-80
2022/04/05 16:03:59;;;;;;;28.27;14.80;;;;;;;;;;6359445;27;20087;-80
2022/04/05 16:07:04;;;;;;;50.17;23.40;;;;;;;;;;6369744;27;20050;-79
2022/04/05 16:10:04;;;;;;;34.47;16.35;;;;;;;;;;6344083;27;20554;-81
2022/04/05 16:13:05;;;;;;;28.10;16.10;;;;;;;;;;6326842;28;20035;-79
2022/04/05 16:16:07;;;;;;;39.03;20.58;;;;;;;;;;6331570;27;20042;-79
2022/04/05 16:19:08;;;;;;;54.60;26.27;;;;;;;;;;6358038;27;20011;-79
2022/04/05 16:22:08;;;;;;;76.43;36.88;;;;;;;;;;6341528;27;20054;-79
2022/04/05 16:25:09;;;;;;;31.58;20.45;;;;;;;;;;6340881;27;20027;-79
2022/04/05 16:28:09;;;;;;;36.90;20.40;;;;;;;;;;6343528;27;20404;-79
2022/04/05 16:31:09;;;;;;;73.80;33.20;;;;;;;;;;6343746;27;20153;-79
2022/04/05 16:34:10;;;;;;;59.33;32.17;;;;;;;;;;6343520;27;20115;-80
2022/04/05 16:37:10;;;;;;;46.67;26.75;;;;;;;;;;6340765;27;20022;-79
2022/04/05 16:40:11;;;;;;;52.75;28.40;;;;;;;;;;6338942;27;20019;-79
2022/04/05 16:43:12;;;;;;;63.40;33.75;;;;;;;;;;6341293;27;20015;-79
2022/04/05 16:46:12;;;;;;;133.10;73.57;;;;;;;;;;6358480;27;20100;-80
2022/04/05 16:49:15;;;;;;;112.90;62.05;;;;;;;;;;6337619;27;20503;-80
2022/04/05 16:52:15;;;;;;;62.40;37.50;;;;;;;;;;6338369;27;20486;-81
2022/04/05 16:55:15;;;;;;;68.53;39.20;;;;;;;;;;6344259;27;20023;-81
2022/04/05 16:58:16;;;;;;;62.38;37.50;;;;;;;;;;6355396;27;20421;-81
2022/04/05 17:01:17;;;;;;;61.30;33.60;;;;;;;;;;6341625;27;20015;-80
2022/04/05 17:04:17;;;;;;;58.67;32.85;;;;;;;;;;6340756;27;20102;-80
2022/04/05 17:07:17;;;;;;;69.73;40.07;;;;;;;;;;6359178;27;20011;-81
2022/04/05 17:10:18;;;;;;;77.72;36.95;;;;;;;;;;6343438;27;20249;-80
2022/04/05 17:13:18;;;;;;;56.15;30.55;;;;;;;;;;6347761;27;20029;-80
2022/04/05 17:16:18;;;;;;;59.83;33.80;;;;;;;;;;6337155;27;20016;-81
2022/04/05 17:19:18;;;;;;;103.30;49.77;;;;;;;;;;6335964;27;20279;-80
2022/04/05 17:22:20;;;;;;;73.05;37.95;;;;;;;;;;6356954;27;20326;-82
2022/04/05 17:25:20;;;;;;;79.20;39.05;;;;;;;;;;6359354;27;20114;-82
2022/04/05 17:28:21;;;;;;;86.15;47.22;;;;;;;;;;6358188;27;20462;-82
2022/04/05 17:31:21;;;;;;;79.63;44.75;;;;;;;;;;6351859;27;20097;-83
2022/04/05 17:34:21;;;;;;;96.03;57.45;;;;;;;;;;6344218;28;20028;-82
2022/04/05 17:37:22;;;;;;;140.57;81.27;;;;;;;;;;6343609;28;20030;-82
2022/04/05 17:40:23;;;;;;;120.15;66.82;;;;;;;;;;6347072;27;20279;-81